createdAt,value
2023-01-20T00:01:12.212Z,100.00
2023-01-20T00:03:40.852Z,100.00
2023-01-20T00:06:09.997Z,100.00
2023-01-20T00:08:38.184Z,100.00
2023-01-20T00:11:07.123Z,100.00
2023-01-20T00:13:37.525Z,100.00
2023-01-20T00:16:06.534Z,100.00
2023-01-20T00:18:35.174Z,100.00
2023-01-20T00:21:05.075Z,100.00
2023-01-20T00:23:33.804Z,100.00
2023-01-20T00:26:05.982Z,100.00
2023-01-20T00:28:34.621Z,100.00
2023-01-20T00:31:13.630Z,100.00
2023-01-20T00:33:42.132Z,100.00
2023-01-20T00:36:10.949Z,100.00
2023-01-20T00:38:39.177Z,100.00
2023-01-20T00:41:08.236Z,100.00
2023-01-20T00:43:36.764Z,100.00
2023-01-20T00:46:05.525Z,100.00
2023-01-20T00:48:35.961Z,100.00
2023-01-20T00:51:04.906Z,100.00
2023-01-20T00:53:33.541Z,100.00
2023-01-20T00:56:01.660Z,100.00
2023-01-20T00:58:29.971Z,100.00
2023-01-20T01:00:59.062Z,100.00
2023-01-20T01:03:28.203Z,100.00
2023-01-20T01:06:07.207Z,100.00
2023-01-20T01:08:36.137Z,100.00
2023-01-20T01:11:04.771Z,100.00
2023-01-20T01:13:33.147Z,100.00
2023-01-20T01:16:01.768Z,100.00
2023-01-20T01:18:30.129Z,100.00
2023-01-20T01:21:00.527Z,100.00
2023-01-20T01:23:28.726Z,100.00
2023-01-20T01:25:57.639Z,100.00
2023-01-20T01:28:25.797Z,100.00
2023-01-20T01:30:54.047Z,100.00
2023-01-20T01:33:22.219Z,100.00
2023-01-20T01:35:56.737Z,100.00
2023-01-20T01:38:26.680Z,100.00
2023-01-20T01:40:56.412Z,100.00
2023-01-20T01:43:26.341Z,100.00
2023-01-20T01:45:54.699Z,100.00
2023-01-20T01:48:25.291Z,100.00
2023-01-20T01:50:56.392Z,100.00
2023-01-20T01:53:28.353Z,100.00
2023-01-20T01:56:00.509Z,100.00
2023-01-20T01:58:33.175Z,100.00
2023-01-20T02:01:01.604Z,100.00
2023-01-20T02:03:36.093Z,100.00
2023-01-20T02:06:06.104Z,100.00
2023-01-20T02:08:36.449Z,100.00
2023-01-20T02:11:04.672Z,100.00
2023-01-20T02:13:33.211Z,100.00
2023-01-20T02:16:06.643Z,100.00
2023-01-20T02:18:45.702Z,100.00
2023-01-20T02:21:53.851Z,100.00
2023-01-20T02:25:04.005Z,100.00
2023-01-20T02:27:53.663Z,100.00
2023-01-20T02:30:40.019Z,100.00
2023-01-20T02:33:14.563Z,100.00
2023-01-20T02:35:47.664Z,100.00
2023-01-20T02:38:26.993Z,100.00
2023-01-20T02:41:00.551Z,100.00
2023-01-20T02:43:36.863Z,100.00
2023-01-20T02:46:13.337Z,100.00
2023-01-20T02:48:48.171Z,100.00
2023-01-20T02:51:21.259Z,100.00
2023-01-20T02:53:53.526Z,100.00
2023-01-20T02:56:24.904Z,100.00
2023-01-20T02:58:58.101Z,100.00
2023-01-20T03:01:31.953Z,100.00
2023-01-20T03:04:05.148Z,100.00
2023-01-20T03:06:39.267Z,100.00
2023-01-20T03:09:10.306Z,100.00
2023-01-20T03:11:42.727Z,100.00
2023-01-20T03:14:13.284Z,100.00
2023-01-20T03:16:42.637Z,100.00
2023-01-20T03:19:12.609Z,100.00
2023-01-20T03:21:40.842Z,100.00
2023-01-20T03:24:09.298Z,100.00
2023-01-20T03:26:37.540Z,100.00
2023-01-20T03:29:07.816Z,100.00
2023-01-20T03:31:39.363Z,100.00
2023-01-20T03:34:12.839Z,100.00
2023-01-20T03:36:44.943Z,100.00
2023-01-20T03:39:13.625Z,100.00
2023-01-20T03:41:53.730Z,100.00
2023-01-20T03:44:29.136Z,100.00
2023-01-20T03:47:08.742Z,100.00
2023-01-20T03:49:44.235Z,100.00
2023-01-20T03:52:48.120Z,100.00
2023-01-20T03:55:17.609Z,100.00
2023-01-20T03:57:52.450Z,100.00
2023-01-20T04:00:22.902Z,100.00
2023-01-20T04:02:52.077Z,100.00
2023-01-20T04:05:20.602Z,100.00
2023-01-20T04:07:52.995Z,100.00
2023-01-20T04:10:21.409Z,100.00
2023-01-20T04:12:50.006Z,100.00
2023-01-20T04:15:19.875Z,100.00
2023-01-20T04:17:48.062Z,100.00
2023-01-20T04:20:17.343Z,100.00
2023-01-20T04:22:50.423Z,100.00
2023-01-20T04:25:25.349Z,100.00
2023-01-20T04:27:53.506Z,100.00
2023-01-20T04:30:21.663Z,100.00
2023-01-20T04:32:49.876Z,100.00
2023-01-20T04:35:19.913Z,100.00
2023-01-20T04:37:49.528Z,100.00
2023-01-20T04:40:18.146Z,100.00
2023-01-20T04:42:46.321Z,100.00
2023-01-20T04:45:17.473Z,100.00
2023-01-20T04:47:46.401Z,100.00
2023-01-20T04:50:15.397Z,100.00
2023-01-20T04:52:44.139Z,100.00
2023-01-20T04:55:14.236Z,100.00
2023-01-20T04:57:42.645Z,100.00
2023-01-20T05:00:18.641Z,100.00
2023-01-20T05:02:47.238Z,100.00
2023-01-20T05:05:15.849Z,100.00
2023-01-20T05:07:44.350Z,100.00
2023-01-20T05:10:14.311Z,100.00
2023-01-20T05:12:42.758Z,100.00
2023-01-20T05:15:11.664Z,100.00
2023-01-20T05:17:39.911Z,100.00
2023-01-20T05:20:08.899Z,100.00
2023-01-20T05:22:36.980Z,100.00
2023-01-20T05:25:05.671Z,100.00
2023-01-20T05:27:37.949Z,100.00
2023-01-20T05:30:07.598Z,100.00
2023-01-20T05:32:35.799Z,100.00
2023-01-20T05:35:03.974Z,100.00
2023-01-20T05:37:32.187Z,100.00
2023-01-20T05:40:00.319Z,100.00
2023-01-20T05:42:28.541Z,100.00
2023-01-20T05:44:58.161Z,100.00
2023-01-20T05:47:26.399Z,100.00
2023-01-20T05:49:54.534Z,100.00
2023-01-20T05:52:22.778Z,100.00
2023-01-20T05:54:51.004Z,100.00
2023-01-20T05:57:19.305Z,100.00
2023-01-20T05:59:47.837Z,100.00
2023-01-20T06:02:18.889Z,100.00
2023-01-20T06:04:47.545Z,100.00
2023-01-20T06:07:16.217Z,100.00
2023-01-20T06:09:44.356Z,100.00
2023-01-20T06:12:12.559Z,100.00
2023-01-20T06:14:40.729Z,100.00
2023-01-20T06:17:08.937Z,100.00
2023-01-20T06:19:38.537Z,100.00
2023-01-20T06:22:08.837Z,100.00
2023-01-20T06:24:36.947Z,100.00
2023-01-20T06:27:05.305Z,100.00
2023-01-20T06:29:33.528Z,100.00
2023-01-20T06:32:01.655Z,100.00
2023-01-20T06:34:29.794Z,100.00
2023-01-20T06:36:59.564Z,100.00
2023-01-20T06:39:27.797Z,100.00
2023-01-20T06:41:59.158Z,100.00
2023-01-20T06:44:27.833Z,100.00
2023-01-20T06:46:57.510Z,100.00
2023-01-20T06:49:25.912Z,100.00
2023-01-20T06:51:54.153Z,100.00
2023-01-20T06:54:23.953Z,100.00
2023-01-20T06:56:52.196Z,100.00
2023-01-20T06:59:20.347Z,100.00
2023-01-20T07:01:48.609Z,100.00
2023-01-20T07:04:16.861Z,100.00
2023-01-20T07:06:45.035Z,100.00
2023-01-20T07:09:14.360Z,100.00
2023-01-20T07:11:44.089Z,100.00
2023-01-20T07:14:12.338Z,100.00
2023-01-20T07:16:40.619Z,100.00
2023-01-20T07:19:09.167Z,100.00
2023-01-20T07:21:37.648Z,100.00
2023-01-20T07:24:06.755Z,100.00
2023-01-20T07:26:35.260Z,100.00
2023-01-20T07:29:04.999Z,100.00
2023-01-20T07:31:34.387Z,100.00
2023-01-20T07:34:02.880Z,100.00
2023-01-20T07:36:30.990Z,100.00
2023-01-20T07:38:59.316Z,100.00
2023-01-20T07:41:27.495Z,100.00
2023-01-20T07:43:55.964Z,100.00
2023-01-20T07:46:25.577Z,100.00
2023-01-20T07:48:53.891Z,100.00
2023-01-20T07:51:22.090Z,100.00
2023-01-20T07:53:52.150Z,73.22
2023-01-20T07:56:24.589Z,71.58
2023-01-20T07:58:55.192Z,69.60
2023-01-20T08:01:27.275Z,70.79
2023-01-20T08:03:55.866Z,69.21
2023-01-20T08:06:26.027Z,69.64
2023-01-20T08:08:56.599Z,68.28
2023-01-20T08:11:26.046Z,68.67
2023-01-20T08:13:54.430Z,67.60
2023-01-20T08:16:22.812Z,68.60
2023-01-20T08:18:54.979Z,67.71
2023-01-20T08:21:25.486Z,67.70
2023-01-20T08:23:56.057Z,66.81
2023-01-20T08:26:25.362Z,66.63
2023-01-20T08:28:54.064Z,67.09
2023-01-20T08:31:24.684Z,67.01
2023-01-20T08:33:56.638Z,66.57
2023-01-20T08:36:27.371Z,66.06
2023-01-20T08:38:57.024Z,66.24
2023-01-20T08:41:27.661Z,65.95
2023-01-20T08:43:56.911Z,65.83
2023-01-20T08:46:25.229Z,65.65
2023-01-20T08:48:56.247Z,66.28
2023-01-20T08:51:27.035Z,65.80
2023-01-20T08:53:55.388Z,65.26
2023-01-20T08:56:23.947Z,65.62
2023-01-20T08:58:54.178Z,64.38
2023-01-20T09:01:28.008Z,65.51
2023-01-20T09:04:05.936Z,64.38
2023-01-20T09:06:40.084Z,63.96
2023-01-20T09:09:08.438Z,64.45
2023-01-20T09:11:36.714Z,64.86
2023-01-20T09:14:04.979Z,64.23
2023-01-20T09:16:33.187Z,63.81
2023-01-20T09:19:03.227Z,64.70
2023-01-20T09:21:31.468Z,64.90
2023-01-20T09:23:59.640Z,64.33
2023-01-20T09:26:35.778Z,63.77
2023-01-20T09:29:09.730Z,64.18
2023-01-20T09:31:39.764Z,64.08
2023-01-20T09:34:09.648Z,63.85
2023-01-20T09:36:37.920Z,63.96
2023-01-20T09:39:19.956Z,63.39
2023-01-20T09:42:07.398Z,63.13
2023-01-20T09:44:48.254Z,63.17
2023-01-20T09:47:26.995Z,63.49
2023-01-20T09:50:41.445Z,63.18
2023-01-20T09:53:16.465Z,62.66
2023-01-20T09:55:51.411Z,62.92
2023-01-20T09:58:30.450Z,63.08
2023-01-20T10:01:08.226Z,62.45
2023-01-20T10:03:43.456Z,63.57
2023-01-20T10:06:20.128Z,62.90
2023-01-20T10:09:04.796Z,62.73
2023-01-20T10:11:39.411Z,62.64
2023-01-20T10:14:15.548Z,62.12
2023-01-20T10:16:51.829Z,62.63
2023-01-20T10:19:28.275Z,62.79
2023-01-20T10:22:06.159Z,62.46
2023-01-20T10:24:41.050Z,62.34
2023-01-20T10:27:09.276Z,61.89
2023-01-20T10:29:39.365Z,61.74
2023-01-20T10:32:14.842Z,60.99
2023-01-20T10:34:46.647Z,61.28
2023-01-20T10:37:16.659Z,60.75
2023-01-20T10:39:51.061Z,60.83
2023-01-20T10:42:20.685Z,61.26
2023-01-20T10:44:51.109Z,60.92
2023-01-20T10:47:40.250Z,60.77
2023-01-20T10:50:35.989Z,60.69
2023-01-20T10:53:22.150Z,61.36
2023-01-20T10:56:03.744Z,61.41
2023-01-20T10:58:35.041Z,60.93
2023-01-20T11:01:09.056Z,61.03
2023-01-20T11:03:40.796Z,60.73
2023-01-20T11:06:15.067Z,61.30
2023-01-20T11:08:44.728Z,60.87
2023-01-20T11:11:16.019Z,61.20
2023-01-20T11:13:44.409Z,60.80
2023-01-20T11:16:17.732Z,61.67
2023-01-20T11:18:56.946Z,61.36
2023-01-20T11:21:26.679Z,61.73
2023-01-20T11:23:57.173Z,60.58
2023-01-20T11:26:28.527Z,60.93
2023-01-20T11:28:58.624Z,60.54
2023-01-20T11:31:38.517Z,60.84
2023-01-20T11:34:22.865Z,61.16
2023-01-20T11:36:51.852Z,61.89
2023-01-20T11:39:30.713Z,61.02
2023-01-20T11:42:15.801Z,61.25
2023-01-20T11:44:44.928Z,61.48
2023-01-20T11:47:24.768Z,61.90
2023-01-20T11:50:29.483Z,61.80
2023-01-20T11:53:14.550Z,61.42
2023-01-20T11:55:51.055Z,61.76
2023-01-20T11:58:21.547Z,61.52
2023-01-20T12:00:52.537Z,60.58
2023-01-20T12:03:50.745Z,61.25
2023-01-20T12:06:24.753Z,61.74
2023-01-20T12:08:59.319Z,61.30
2023-01-20T12:11:32.441Z,61.41
2023-01-20T12:14:28.804Z,62.44
2023-01-20T12:17:16.961Z,60.50
2023-01-20T12:20:14.539Z,61.05
2023-01-20T12:22:50.181Z,61.18
2023-01-20T12:25:22.188Z,61.47
2023-01-20T12:27:55.531Z,61.35
2023-01-20T12:30:39.472Z,61.01
2023-01-20T12:33:18.470Z,60.94
2023-01-20T12:36:33.299Z,61.79
2023-01-20T12:39:16.623Z,60.75
2023-01-20T12:42:08.568Z,60.89
2023-01-20T12:44:41.359Z,61.03
2023-01-20T12:47:21.358Z,60.44
2023-01-20T12:50:07.397Z,60.59
2023-01-20T12:52:50.035Z,59.74
2023-01-20T12:55:30.245Z,61.13
2023-01-20T12:58:13.548Z,60.46
2023-01-20T13:00:56.947Z,60.89
2023-01-20T13:04:03.643Z,60.63
2023-01-20T13:06:54.903Z,60.79
2023-01-20T13:09:42.843Z,61.31
2023-01-20T13:12:26.157Z,61.73
2023-01-20T13:15:00.113Z,60.77
2023-01-20T13:17:37.948Z,61.30
2023-01-20T13:20:16.071Z,61.42
2023-01-20T13:22:44.599Z,61.22
2023-01-20T13:25:17.446Z,61.03
2023-01-20T13:27:51.128Z,61.68
2023-01-20T13:30:43.246Z,61.67
2023-01-20T13:33:19.689Z,61.44
2023-01-20T13:35:50.944Z,60.49
2023-01-20T13:38:22.605Z,60.31
2023-01-20T13:40:56.291Z,61.00
2023-01-20T13:43:36.473Z,60.74
2023-01-20T13:46:40.569Z,61.63
2023-01-20T13:49:23.530Z,61.72
2023-01-20T13:51:52.037Z,61.35
2023-01-20T13:54:44.122Z,60.26
2023-01-20T13:57:35.876Z,59.90
2023-01-20T14:00:18.305Z,60.33
2023-01-20T14:02:48.790Z,60.44
2023-01-20T14:05:34.095Z,61.08
2023-01-20T14:08:02.385Z,60.50
2023-01-20T14:10:30.982Z,61.40
2023-01-20T14:12:59.226Z,59.86
2023-01-20T14:15:37.230Z,59.77
2023-01-20T14:18:06.404Z,60.36
2023-01-20T14:20:37.494Z,59.36
2023-01-20T14:23:29.015Z,60.55
2023-01-20T14:26:03.340Z,59.60
2023-01-20T14:28:31.829Z,59.69
2023-01-20T14:31:18.919Z,59.28
2023-01-20T14:33:50.319Z,59.54
2023-01-20T14:36:23.150Z,59.67
2023-01-20T14:38:58.300Z,59.97
2023-01-20T14:41:46.895Z,59.58
2023-01-20T14:44:20.237Z,60.75
2023-01-20T14:46:51.388Z,58.84
2023-01-20T14:49:22.412Z,59.84
2023-01-20T14:51:54.051Z,58.88
2023-01-20T14:54:44.305Z,59.32
2023-01-20T14:57:22.885Z,59.24
2023-01-20T15:00:04.235Z,59.30
2023-01-20T15:02:35.571Z,59.18
2023-01-20T15:05:14.101Z,58.82
2023-01-20T15:07:43.835Z,59.90
2023-01-20T15:10:16.720Z,60.17
2023-01-20T15:12:55.489Z,60.58
2023-01-20T15:15:29.857Z,59.22
2023-01-20T15:18:05.815Z,59.09
2023-01-20T15:20:35.305Z,58.56
2023-01-20T15:23:04.856Z,59.34
2023-01-20T15:25:37.903Z,58.95
2023-01-20T15:28:06.454Z,58.89
2023-01-20T15:30:34.769Z,59.06
2023-01-20T15:33:02.974Z,58.84
2023-01-20T15:35:31.193Z,59.98
2023-01-20T15:37:59.547Z,59.70
2023-01-20T15:40:29.292Z,59.70
2023-01-20T15:42:57.624Z,59.89
2023-01-20T15:45:26.953Z,59.20
2023-01-20T15:47:55.173Z,59.41
2023-01-20T15:50:26.818Z,60.39
2023-01-20T15:52:55.087Z,60.44
2023-01-20T15:55:23.455Z,60.88
2023-01-20T15:57:54.074Z,61.74
2023-01-20T16:00:24.562Z,61.48
2023-01-20T16:02:52.855Z,60.23
2023-01-20T16:05:21.594Z,60.66
2023-01-20T16:07:50.471Z,61.58
2023-01-20T16:10:19.680Z,62.11
2023-01-20T16:12:48.382Z,62.09
2023-01-20T16:15:19.420Z,62.72
2023-01-20T16:17:47.671Z,63.85
2023-01-20T16:20:25.044Z,63.28
2023-01-20T16:22:53.576Z,63.64
2023-01-20T16:25:22.356Z,63.46
2023-01-20T16:27:51.117Z,62.21
2023-01-20T16:30:22.784Z,62.43
2023-01-20T16:32:51.275Z,60.87
2023-01-20T16:35:20.914Z,61.27
2023-01-20T16:37:49.668Z,61.53
2023-01-20T16:40:19.751Z,62.62
2023-01-20T16:42:48.483Z,63.38
2023-01-20T16:45:28.450Z,63.69
2023-01-20T16:47:57.106Z,63.53
2023-01-20T16:50:28.006Z,63.58
2023-01-20T16:52:56.226Z,62.64
2023-01-20T16:55:25.288Z,63.73
2023-01-20T16:57:53.548Z,65.24
2023-01-20T17:00:22.922Z,63.87
2023-01-20T17:02:53.638Z,61.30
2023-01-20T17:05:25.787Z,61.50
2023-01-20T17:07:56.987Z,60.94
2023-01-20T17:10:27.195Z,61.32
2023-01-20T17:12:56.328Z,62.20
2023-01-20T17:15:25.874Z,61.86
2023-01-20T17:17:58.465Z,63.20
2023-01-20T17:20:27.771Z,63.20
2023-01-20T17:22:56.421Z,61.24
2023-01-20T17:25:24.725Z,62.57
2023-01-20T17:27:53.058Z,63.39
2023-01-20T17:30:22.234Z,62.81
2023-01-20T17:32:51.186Z,61.31
2023-01-20T17:35:20.786Z,62.27
2023-01-20T17:37:49.067Z,63.26
2023-01-20T17:40:17.647Z,63.99
2023-01-20T17:42:46.563Z,62.10
2023-01-20T17:45:14.910Z,62.63
2023-01-20T17:47:43.113Z,62.68
2023-01-20T17:50:12.456Z,64.35
2023-01-20T17:52:43.089Z,65.77
2023-01-20T17:55:12.122Z,66.51
2023-01-20T17:57:40.294Z,66.80
2023-01-20T18:00:10.301Z,66.50
2023-01-20T18:02:38.452Z,66.26
2023-01-20T18:05:07.460Z,67.43
2023-01-20T18:07:35.674Z,69.53
2023-01-20T18:10:05.704Z,70.23
2023-01-20T18:12:34.046Z,72.20
2023-01-20T18:15:02.400Z,72.54
2023-01-20T18:17:34.463Z,71.01
2023-01-20T18:20:02.766Z,71.81
2023-01-20T18:22:31.008Z,72.16
2023-01-20T18:24:59.427Z,72.63
2023-01-20T18:27:29.879Z,73.87
2023-01-20T18:29:58.216Z,73.91
2023-01-20T18:32:26.598Z,74.95
2023-01-20T18:34:55.428Z,76.12
2023-01-20T18:37:23.953Z,76.83
2023-01-20T18:39:52.761Z,77.23
2023-01-20T18:42:22.135Z,75.84
2023-01-20T18:44:52.325Z,74.00
2023-01-20T18:47:23.665Z,75.26
2023-01-20T18:49:58.252Z,75.59
2023-01-20T18:52:26.897Z,75.52
2023-01-20T18:54:55.259Z,75.99
2023-01-20T18:57:23.472Z,73.61
2023-01-20T18:59:53.251Z,74.85
2023-01-20T19:02:21.630Z,76.07
2023-01-20T19:04:50.001Z,77.06
2023-01-20T19:07:18.566Z,77.87
2023-01-20T19:09:47.774Z,77.44
2023-01-20T19:12:16.022Z,76.34
2023-01-20T19:14:44.385Z,77.09
2023-01-20T19:17:14.196Z,77.56
2023-01-20T19:19:46.247Z,76.54
2023-01-20T19:22:14.539Z,74.39
2023-01-20T19:24:42.928Z,75.55
2023-01-20T19:27:11.260Z,76.97
2023-01-20T19:29:41.117Z,77.00
2023-01-20T19:32:09.653Z,77.85
2023-01-20T19:34:39.374Z,78.72
2023-01-20T19:37:07.594Z,78.80
2023-01-20T19:39:35.793Z,78.27
2023-01-20T19:42:04.099Z,78.31
2023-01-20T19:44:32.568Z,79.36
2023-01-20T19:47:04.342Z,80.45
2023-01-20T19:49:32.945Z,80.23
2023-01-20T19:52:02.684Z,81.00
2023-01-20T19:54:31.972Z,80.84
2023-01-20T19:57:01.553Z,80.17
2023-01-20T19:59:29.766Z,80.73
2023-01-20T20:01:58.069Z,81.05
2023-01-20T20:04:26.549Z,75.20
2023-01-20T20:06:55.054Z,73.68
2023-01-20T20:09:26.270Z,74.09
2023-01-20T20:11:55.463Z,75.33
2023-01-20T20:14:24.550Z,75.15
2023-01-20T20:16:53.445Z,72.47
2023-01-20T20:19:21.895Z,75.08
2023-01-20T20:21:50.263Z,76.72
2023-01-20T20:24:19.871Z,78.42
2023-01-20T20:26:49.672Z,79.13
2023-01-20T20:29:19.960Z,78.72
2023-01-20T20:31:48.324Z,78.54
2023-01-20T20:34:18.608Z,77.31
2023-01-20T20:36:47.243Z,76.34
2023-01-20T20:39:17.255Z,77.71
2023-01-20T20:41:46.103Z,77.00
2023-01-20T20:44:15.779Z,74.79
2023-01-20T20:46:44.683Z,77.57
2023-01-20T20:49:15.899Z,78.76
2023-01-20T20:51:44.729Z,78.27
2023-01-20T20:54:15.510Z,77.54
2023-01-20T20:56:44.142Z,76.98
2023-01-20T20:59:12.495Z,76.99
2023-01-20T21:01:42.318Z,77.33
2023-01-20T21:04:11.747Z,76.96
2023-01-20T21:06:40.203Z,76.67
2023-01-20T21:09:09.056Z,75.08
2023-01-20T21:11:38.463Z,74.13
2023-01-20T21:14:07.408Z,73.11
2023-01-20T21:16:36.030Z,72.48
2023-01-20T21:19:05.743Z,73.63
2023-01-20T21:21:33.995Z,74.00
2023-01-20T21:24:02.242Z,74.28
2023-01-20T21:26:31.111Z,71.85
2023-01-20T21:29:02.172Z,69.70
2023-01-20T21:31:31.974Z,69.00
2023-01-20T21:34:00.791Z,69.96
2023-01-20T21:36:32.478Z,67.17
2023-01-20T21:39:00.758Z,67.71
2023-01-20T21:41:29.033Z,67.94
2023-01-20T21:44:14.825Z,67.39
2023-01-20T21:46:43.099Z,67.07
2023-01-20T21:49:28.567Z,66.58
2023-01-20T21:52:15.743Z,66.82
2023-01-20T21:54:45.498Z,65.43
2023-01-20T21:57:14.628Z,65.88
2023-01-20T21:59:43.513Z,66.39
2023-01-20T22:02:13.682Z,65.99
2023-01-20T22:04:41.991Z,66.28
2023-01-20T22:07:11.837Z,65.82
2023-01-20T22:09:40.758Z,65.53
2023-01-20T22:12:09.654Z,65.47
2023-01-20T22:14:38.073Z,64.81
2023-01-20T22:17:06.784Z,64.47
2023-01-20T22:19:36.145Z,64.25
2023-01-20T22:22:05.145Z,63.59
2023-01-20T22:24:35.215Z,63.57
2023-01-20T22:27:03.890Z,63.06
2023-01-20T22:29:32.254Z,63.59
2023-01-20T22:32:03.305Z,63.17
2023-01-20T22:34:31.902Z,62.22
2023-01-20T22:37:00.839Z,61.30
2023-01-20T22:39:29.406Z,62.06
2023-01-20T22:42:00.764Z,60.04
2023-01-20T22:44:28.951Z,60.02
2023-01-20T22:46:57.143Z,60.34
2023-01-20T22:49:25.433Z,59.89
2023-01-20T22:51:55.891Z,59.54
2023-01-20T22:54:24.100Z,58.92
2023-01-20T22:56:52.331Z,59.54
2023-01-20T22:59:21.999Z,59.08
2023-01-20T23:01:50.233Z,59.15
2023-01-20T23:04:18.560Z,59.20
2023-01-20T23:06:46.761Z,58.92
2023-01-20T23:09:15.573Z,59.26
2023-01-20T23:11:43.745Z,58.99
2023-01-20T23:14:13.827Z,58.59
2023-01-20T23:16:44.366Z,58.44
2023-01-20T23:19:12.831Z,58.28
2023-01-20T23:21:41.113Z,58.79
2023-01-20T23:24:09.648Z,59.62
2023-01-20T23:26:37.854Z,59.71
2023-01-20T23:29:06.161Z,59.16
2023-01-20T23:31:35.553Z,59.67
2023-01-20T23:34:05.379Z,59.29
2023-01-20T23:36:33.607Z,59.03
2023-01-20T23:39:01.845Z,59.33
2023-01-20T23:41:30.042Z,59.90
2023-01-20T23:43:58.218Z,59.74
2023-01-20T23:46:26.376Z,59.62
2023-01-20T23:48:54.503Z,58.85
2023-01-20T23:51:24.139Z,59.39
2023-01-20T23:53:52.301Z,60.22
2023-01-20T23:56:22.158Z,59.60
2023-01-20T23:58:50.659Z,60.29
